sensor_id;sensor_type;location;lat;lon;timestamp;P1;durP1;ratioP1;P2;durP2;ratioP2
38479;SDS011;62333;51.980;5.934;2024-02-21T00:02:03;15.90;;;7.32;;
38479;SDS011;62333;51.980;5.934;2024-02-21T00:04:29;16.35;;;8.65;;
38479;SDS011;62333;51.980;5.934;2024-02-21T00:06:55;16.50;;;7.97;;
38479;SDS011;62333;51.980;5.934;2024-02-21T00:09:20;14.60;;;6.47;;
38479;SDS011;62333;51.980;5.934;2024-02-21T00:11:46;12.38;;;7.72;;
38479;SDS011;62333;51.980;5.934;2024-02-21T00:14:12;11.18;;;5.68;;
38479;SDS011;62333;51.980;5.934;2024-02-21T00:16:38;13.38;;;5.63;;
38479;SDS011;62333;51.980;5.934;2024-02-21T00:19:03;17.30;;;7.43;;
38479;SDS011;62333;51.980;5.934;2024-02-21T00:21:29;15.23;;;6.65;;
38479;SDS011;62333;51.980;5.934;2024-02-21T00:23:55;11.57;;;5.65;;
38479;SDS011;62333;51.980;5.934;2024-02-21T00:26:20;11.68;;;6.30;;
38479;SDS011;62333;51.980;5.934;2024-02-21T00:28:46;24.67;;;6.72;;
38479;SDS011;62333;51.980;5.934;2024-02-21T00:31:12;22.58;;;9.05;;
38479;SDS011;62333;51.980;5.934;2024-02-21T00:33:37;14.73;;;7.25;;
38479;SDS011;62333;51.980;5.934;2024-02-21T00:36:03;15.07;;;5.93;;
38479;SDS011;62333;51.980;5.934;2024-02-21T00:38:29;8.40;;;5.05;;
38479;SDS011;62333;51.980;5.934;2024-02-21T00:40:55;11.02;;;5.05;;
38479;SDS011;62333;51.980;5.934;2024-02-21T00:43:20;15.90;;;5.90;;
38479;SDS011;62333;51.980;5.934;2024-02-21T00:45:48;12.98;;;5.38;;
38479;SDS011;62333;51.980;5.934;2024-02-21T00:48:15;13.20;;;6.85;;
38479;SDS011;62333;51.980;5.934;2024-02-21T00:50:40;11.52;;;5.75;;
38479;SDS011;62333;51.980;5.934;2024-02-21T00:53:06;21.05;;;6.13;;
38479;SDS011;62333;51.980;5.934;2024-02-21T00:55:32;11.27;;;5.63;;
38479;SDS011;62333;51.980;5.934;2024-02-21T00:57:57;14.32;;;6.60;;
38479;SDS011;62333;51.980;5.934;2024-02-21T01:00:23;14.52;;;4.75;;
38479;SDS011;62333;51.980;5.934;2024-02-21T01:02:49;15.48;;;5.88;;
38479;SDS011;62333;51.980;5.934;2024-02-21T01:05:14;14.90;;;7.18;;
38479;SDS011;62333;51.980;5.934;2024-02-21T01:07:40;21.38;;;6.10;;
38479;SDS011;62333;51.980;5.934;2024-02-21T01:10:06;12.43;;;5.35;;
38479;SDS011;62333;51.980;5.934;2024-02-21T01:12:32;12.57;;;5.78;;
38479;SDS011;62333;51.980;5.934;2024-02-21T01:14:57;15.60;;;5.80;;
38479;SDS011;62333;51.980;5.934;2024-02-21T01:17:23;7.93;;;4.40;;
38479;SDS011;62333;51.980;5.934;2024-02-21T01:19:49;12.25;;;4.55;;
38479;SDS011;62333;51.980;5.934;2024-02-21T01:22:14;9.45;;;4.75;;
38479;SDS011;62333;51.980;5.934;2024-02-21T01:24:41;11.63;;;7.28;;
38479;SDS011;62333;51.980;5.934;2024-02-21T01:27:07;16.27;;;6.38;;
38479;SDS011;62333;51.980;5.934;2024-02-21T01:29:32;13.77;;;5.10;;
38479;SDS011;62333;51.980;5.934;2024-02-21T01:31:58;16.30;;;6.53;;
38479;SDS011;62333;51.980;5.934;2024-02-21T01:34:24;13.40;;;4.88;;
38479;SDS011;62333;51.980;5.934;2024-02-21T01:36:50;11.43;;;5.65;;
38479;SDS011;62333;51.980;5.934;2024-02-21T01:39:15;14.85;;;6.28;;
38479;SDS011;62333;51.980;5.934;2024-02-21T01:41:41;12.75;;;5.97;;
38479;SDS011;62333;51.980;5.934;2024-02-21T01:44:07;12.43;;;5.45;;
38479;SDS011;62333;51.980;5.934;2024-02-21T01:46:32;13.13;;;4.75;;
38479;SDS011;62333;51.980;5.934;2024-02-21T01:48:58;10.18;;;5.10;;
38479;SDS011;62333;51.980;5.934;2024-02-21T01:51:25;12.65;;;5.28;;
38479;SDS011;62333;51.980;5.934;2024-02-21T01:53:51;11.55;;;6.85;;
38479;SDS011;62333;51.980;5.934;2024-02-21T01:56:18;12.68;;;6.03;;
38479;SDS011;62333;51.980;5.934;2024-02-21T01:58:44;11.02;;;4.95;;
38479;SDS011;62333;51.980;5.934;2024-02-21T02:01:12;15.95;;;6.18;;
38479;SDS011;62333;51.980;5.934;2024-02-21T02:03:38;13.18;;;5.93;;
38479;SDS011;62333;51.980;5.934;2024-02-21T02:06:05;22.27;;;6.50;;
38479;SDS011;62333;51.980;5.934;2024-02-21T02:08:31;8.00;;;3.63;;
38479;SDS011;62333;51.980;5.934;2024-02-21T02:10:58;15.85;;;5.82;;
38479;SDS011;62333;51.980;5.934;2024-02-21T02:13:24;17.38;;;5.15;;
38479;SDS011;62333;51.980;5.934;2024-02-21T02:15:50;15.55;;;6.20;;
38479;SDS011;62333;51.980;5.934;2024-02-21T02:18:17;12.90;;;4.70;;
38479;SDS011;62333;51.980;5.934;2024-02-21T02:20:45;11.18;;;6.13;;
38479;SDS011;62333;51.980;5.934;2024-02-21T02:23:22;14.00;;;6.57;;
38479;SDS011;62333;51.980;5.934;2024-02-21T02:25:52;12.65;;;6.35;;
38479;SDS011;62333;51.980;5.934;2024-02-21T02:28:18;16.40;;;5.15;;
38479;SDS011;62333;51.980;5.934;2024-02-21T02:30:44;11.40;;;5.13;;
38479;SDS011;62333;51.980;5.934;2024-02-21T02:33:10;10.15;;;5.15;;
38479;SDS011;62333;51.980;5.934;2024-02-21T02:35:35;12.10;;;5.70;;
38479;SDS011;62333;51.980;5.934;2024-02-21T02:38:02;12.40;;;5.38;;
38479;SDS011;62333;51.980;5.934;2024-02-21T02:40:28;14.70;;;8.27;;
38479;SDS011;62333;51.980;5.934;2024-02-21T02:42:54;19.27;;;6.32;;
38479;SDS011;62333;51.980;5.934;2024-02-21T02:45:23;14.43;;;6.25;;
38479;SDS011;62333;51.980;5.934;2024-02-21T02:47:51;14.88;;;7.47;;
38479;SDS011;62333;51.980;5.934;2024-02-21T02:50:21;10.52;;;5.95;;
38479;SDS011;62333;51.980;5.934;2024-02-21T02:52:48;14.95;;;6.63;;
38479;SDS011;62333;51.980;5.934;2024-02-21T02:55:14;16.58;;;6.53;;
38479;SDS011;62333;51.980;5.934;2024-02-21T02:57:40;13.93;;;5.60;;
38479;SDS011;62333;51.980;5.934;2024-02-21T03:00:07;9.02;;;6.00;;
38479;SDS011;62333;51.980;5.934;2024-02-21T03:02:34;15.43;;;5.65;;
38479;SDS011;62333;51.980;5.934;2024-02-21T03:05:00;17.45;;;5.88;;
38479;SDS011;62333;51.980;5.934;2024-02-21T03:07:26;16.17;;;6.55;;
38479;SDS011;62333;51.980;5.934;2024-02-21T03:09:51;15.82;;;9.48;;
38479;SDS011;62333;51.980;5.934;2024-02-21T03:12:18;14.38;;;5.88;;
38479;SDS011;62333;51.980;5.934;2024-02-21T03:14:49;12.60;;;6.13;;
38479;SDS011;62333;51.980;5.934;2024-02-21T03:17:15;10.75;;;5.97;;
38479;SDS011;62333;51.980;5.934;2024-02-21T03:19:41;17.65;;;7.20;;
38479;SDS011;62333;51.980;5.934;2024-02-21T03:22:07;16.25;;;7.43;;
38479;SDS011;62333;51.980;5.934;2024-02-21T03:24:32;11.38;;;5.88;;
38479;SDS011;62333;51.980;5.934;2024-02-21T03:26:58;13.48;;;6.47;;
38479;SDS011;62333;51.980;5.934;2024-02-21T03:29:24;16.42;;;7.22;;
38479;SDS011;62333;51.980;5.934;2024-02-21T03:31:50;11.23;;;6.63;;
38479;SDS011;62333;51.980;5.934;2024-02-21T03:34:16;9.40;;;4.90;;
38479;SDS011;62333;51.980;5.934;2024-02-21T03:36:42;11.25;;;6.20;;
38479;SDS011;62333;51.980;5.934;2024-02-21T03:39:07;18.50;;;7.00;;
38479;SDS011;62333;51.980;5.934;2024-02-21T03:41:34;27.77;;;6.82;;
38479;SDS011;62333;51.980;5.934;2024-02-21T03:44:00;10.18;;;4.95;;
38479;SDS011;62333;51.980;5.934;2024-02-21T03:46:27;13.90;;;4.55;;
38479;SDS011;62333;51.980;5.934;2024-02-21T03:48:52;10.23;;;3.58;;
38479;SDS011;62333;51.980;5.934;2024-02-21T03:51:18;9.27;;;5.07;;
38479;SDS011;62333;51.980;5.934;2024-02-21T03:53:44;20.10;;;5.03;;
38479;SDS011;62333;51.980;5.934;2024-02-21T03:56:09;7.40;;;3.40;;
38479;SDS011;62333;51.980;5.934;2024-02-21T03:58:35;9.20;;;3.80;;
38479;SDS011;62333;51.980;5.934;2024-02-21T04:01:01;15.27;;;4.25;;
38479;SDS011;62333;51.980;5.934;2024-02-21T04:03:27;7.88;;;3.70;;
38479;SDS011;62333;51.980;5.934;2024-02-21T04:05:53;10.95;;;3.80;;
38479;SDS011;62333;51.980;5.934;2024-02-21T04:08:18;8.38;;;3.47;;
38479;SDS011;62333;51.980;5.934;2024-02-21T04:10:44;9.05;;;2.90;;
38479;SDS011;62333;51.980;5.934;2024-02-21T04:13:10;10.95;;;4.22;;
38479;SDS011;62333;51.980;5.934;2024-02-21T04:15:35;7.88;;;3.25;;
38479;SDS011;62333;51.980;5.934;2024-02-21T04:18:01;8.88;;;3.10;;
38479;SDS011;62333;51.980;5.934;2024-02-21T04:20:28;9.18;;;3.60;;
38479;SDS011;62333;51.980;5.934;2024-02-21T04:22:54;8.73;;;2.20;;
38479;SDS011;62333;51.980;5.934;2024-02-21T04:25:20;8.82;;;4.20;;
38479;SDS011;62333;51.980;5.934;2024-02-21T04:27:46;11.48;;;2.97;;
38479;SDS011;62333;51.980;5.934;2024-02-21T04:30:12;9.23;;;4.40;;
38479;SDS011;62333;51.980;5.934;2024-02-21T04:32:38;9.77;;;2.45;;
38479;SDS011;62333;51.980;5.934;2024-02-21T04:35:04;8.43;;;2.70;;
38479;SDS011;62333;51.980;5.934;2024-02-21T04:37:30;7.47;;;3.38;;
38479;SDS011;62333;51.980;5.934;2024-02-21T04:39:56;11.65;;;2.42;;
38479;SDS011;62333;51.980;5.934;2024-02-21T04:42:21;7.53;;;2.55;;
38479;SDS011;62333;51.980;5.934;2024-02-21T04:44:47;9.73;;;2.30;;
38479;SDS011;62333;51.980;5.934;2024-02-21T04:47:13;8.30;;;3.28;;
38479;SDS011;62333;51.980;5.934;2024-02-21T04:49:38;12.73;;;2.45;;
38479;SDS011;62333;51.980;5.934;2024-02-21T04:52:04;9.65;;;3.15;;
38479;SDS011;62333;51.980;5.934;2024-02-21T04:54:30;7.65;;;2.30;;
38479;SDS011;62333;51.980;5.934;2024-02-21T04:56:56;8.00;;;3.15;;
38479;SDS011;62333;51.980;5.934;2024-02-21T04:59:21;8.50;;;2.33;;
38479;SDS011;62333;51.980;5.934;2024-02-21T05:01:47;11.23;;;3.53;;
38479;SDS011;62333;51.980;5.934;2024-02-21T05:04:13;8.82;;;2.50;;
38479;SDS011;62333;51.980;5.934;2024-02-21T05:06:39;15.73;;;4.13;;
38479;SDS011;62333;51.980;5.934;2024-02-21T05:09:06;9.63;;;3.95;;
38479;SDS011;62333;51.980;5.934;2024-02-21T05:11:31;11.25;;;3.33;;
38479;SDS011;62333;51.980;5.934;2024-02-21T05:13:57;7.88;;;3.78;;
38479;SDS011;62333;51.980;5.934;2024-02-21T05:16:23;6.75;;;2.47;;
38479;SDS011;62333;51.980;5.934;2024-02-21T05:18:49;8.77;;;3.45;;
38479;SDS011;62333;51.980;5.934;2024-02-21T05:21:14;14.75;;;4.18;;
38479;SDS011;62333;51.980;5.934;2024-02-21T05:23:40;6.50;;;2.72;;
38479;SDS011;62333;51.980;5.934;2024-02-21T05:26:06;8.95;;;2.88;;
38479;SDS011;62333;51.980;5.934;2024-02-21T05:28:31;7.70;;;3.90;;
38479;SDS011;62333;51.980;5.934;2024-02-21T05:30:58;5.68;;;2.45;;
38479;SDS011;62333;51.980;5.934;2024-02-21T05:33:23;7.68;;;3.72;;
38479;SDS011;62333;51.980;5.934;2024-02-21T05:35:49;12.35;;;3.63;;
38479;SDS011;62333;51.980;5.934;2024-02-21T05:38:16;6.60;;;3.17;;
38479;SDS011;62333;51.980;5.934;2024-02-21T05:40:42;6.20;;;3.20;;
38479;SDS011;62333;51.980;5.934;2024-02-21T05:43:07;8.35;;;3.33;;
38479;SDS011;62333;51.980;5.934;2024-02-21T05:45:34;9.82;;;3.55;;
38479;SDS011;62333;51.980;5.934;2024-02-21T05:47:59;12.77;;;5.63;;
38479;SDS011;62333;51.980;5.934;2024-02-21T05:50:25;14.35;;;4.63;;
38479;SDS011;62333;51.980;5.934;2024-02-21T05:52:53;7.85;;;3.90;;
38479;SDS011;62333;51.980;5.934;2024-02-21T05:55:20;11.68;;;4.55;;
38479;SDS011;62333;51.980;5.934;2024-02-21T05:57:46;10.57;;;4.47;;
38479;SDS011;62333;51.980;5.934;2024-02-21T06:00:12;7.45;;;3.50;;
38479;SDS011;62333;51.980;5.934;2024-02-21T06:02:39;8.38;;;3.65;;
38479;SDS011;62333;51.980;5.934;2024-02-21T06:05:05;13.45;;;5.18;;
38479;SDS011;62333;51.980;5.934;2024-02-21T06:07:32;8.48;;;3.78;;
38479;SDS011;62333;51.980;5.934;2024-02-21T06:09:59;8.90;;;4.43;;
38479;SDS011;62333;51.980;5.934;2024-02-21T06:12:25;13.68;;;5.15;;
38479;SDS011;62333;51.980;5.934;2024-02-21T06:14:51;12.10;;;4.50;;
38479;SDS011;62333;51.980;5.934;2024-02-21T06:17:17;12.35;;;4.78;;
38479;SDS011;62333;51.980;5.934;2024-02-21T06:19:43;9.27;;;5.32;;
38479;SDS011;62333;51.980;5.934;2024-02-21T06:22:10;7.05;;;3.47;;
38479;SDS011;62333;51.980;5.934;2024-02-21T06:24:36;10.52;;;4.95;;
38479;SDS011;62333;51.980;5.934;2024-02-21T06:27:03;9.00;;;3.88;;
38479;SDS011;62333;51.980;5.934;2024-02-21T06:29:30;11.65;;;4.47;;
38479;SDS011;62333;51.980;5.934;2024-02-21T06:31:57;9.90;;;3.70;;
38479;SDS011;62333;51.980;5.934;2024-02-21T06:34:22;9.25;;;4.68;;
38479;SDS011;62333;51.980;5.934;2024-02-21T06:36:49;8.38;;;3.28;;
38479;SDS011;62333;51.980;5.934;2024-02-21T06:39:15;6.72;;;2.83;;
38479;SDS011;62333;51.980;5.934;2024-02-21T06:41:41;8.93;;;3.47;;
38479;SDS011;62333;51.980;5.934;2024-02-21T06:44:06;9.55;;;3.17;;
38479;SDS011;62333;51.980;5.934;2024-02-21T06:46:32;9.35;;;3.40;;
38479;SDS011;62333;51.980;5.934;2024-02-21T06:49:01;6.03;;;2.88;;
38479;SDS011;62333;51.980;5.934;2024-02-21T06:51:28;11.65;;;4.60;;
38479;SDS011;62333;51.980;5.934;2024-02-21T06:53:54;7.63;;;3.20;;
38479;SDS011;62333;51.980;5.934;2024-02-21T06:56:20;9.30;;;3.38;;
38479;SDS011;62333;51.980;5.934;2024-02-21T06:58:51;8.82;;;3.95;;
38479;SDS011;62333;51.980;5.934;2024-02-21T07:01:17;6.15;;;3.65;;
38479;SDS011;62333;51.980;5.934;2024-02-21T07:03:43;10.32;;;3.65;;
38479;SDS011;62333;51.980;5.934;2024-02-21T07:06:09;9.82;;;3.55;;
38479;SDS011;62333;51.980;5.934;2024-02-21T07:08:34;9.52;;;5.20;;
38479;SDS011;62333;51.980;5.934;2024-02-21T07:11:00;8.85;;;3.40;;
38479;SDS011;62333;51.980;5.934;2024-02-21T07:13:25;11.73;;;3.65;;
38479;SDS011;62333;51.980;5.934;2024-02-21T07:15:51;6.20;;;3.45;;
38479;SDS011;62333;51.980;5.934;2024-02-21T07:18:17;11.02;;;3.30;;
38479;SDS011;62333;51.980;5.934;2024-02-21T07:20:42;12.43;;;4.32;;
38479;SDS011;62333;51.980;5.934;2024-02-21T07:23:08;9.05;;;5.03;;
38479;SDS011;62333;51.980;5.934;2024-02-21T07:25:34;10.25;;;4.30;;
38479;SDS011;62333;51.980;5.934;2024-02-21T07:27:59;6.60;;;3.33;;
38479;SDS011;62333;51.980;5.934;2024-02-21T07:30:25;9.73;;;4.40;;
38479;SDS011;62333;51.980;5.934;2024-02-21T07:32:51;8.35;;;3.30;;
38479;SDS011;62333;51.980;5.934;2024-02-21T07:35:17;8.82;;;3.17;;
38479;SDS011;62333;51.980;5.934;2024-02-21T07:37:43;8.15;;;3.92;;
38479;SDS011;62333;51.980;5.934;2024-02-21T07:40:12;10.77;;;3.53;;
38479;SDS011;62333;51.980;5.934;2024-02-21T07:42:39;13.70;;;6.65;;
38479;SDS011;62333;51.980;5.934;2024-02-21T07:45:06;7.70;;;3.45;;
38479;SDS011;62333;51.980;5.934;2024-02-21T07:47:35;7.63;;;2.92;;
38479;SDS011;62333;51.980;5.934;2024-02-21T07:50:02;10.60;;;3.08;;
38479;SDS011;62333;51.980;5.934;2024-02-21T07:52:28;8.82;;;3.35;;
38479;SDS011;62333;51.980;5.934;2024-02-21T07:54:54;5.35;;;2.78;;
38479;SDS011;62333;51.980;5.934;2024-02-21T07:57:20;8.30;;;4.03;;
38479;SDS011;62333;51.980;5.934;2024-02-21T07:59:46;8.18;;;3.08;;
38479;SDS011;62333;51.980;5.934;2024-02-21T08:02:15;10.93;;;4.53;;
38479;SDS011;62333;51.980;5.934;2024-02-21T08:04:41;8.05;;;3.05;;
38479;SDS011;62333;51.980;5.934;2024-02-21T08:07:07;11.38;;;4.00;;
38479;SDS011;62333;51.980;5.934;2024-02-21T08:09:34;10.45;;;4.57;;
38479;SDS011;62333;51.980;5.934;2024-02-21T08:12:00;9.70;;;4.05;;
38479;SDS011;62333;51.980;5.934;2024-02-21T08:14:25;8.35;;;3.95;;
38479;SDS011;62333;51.980;5.934;2024-02-21T08:16:51;7.10;;;2.90;;
38479;SDS011;62333;51.980;5.934;2024-02-21T08:19:21;11.77;;;3.60;;
38479;SDS011;62333;51.980;5.934;2024-02-21T08:21:49;10.40;;;5.10;;
38479;SDS011;62333;51.980;5.934;2024-02-21T08:24:15;14.50;;;4.30;;
38479;SDS011;62333;51.980;5.934;2024-02-21T08:26:41;10.50;;;4.35;;
38479;SDS011;62333;51.980;5.934;2024-02-21T08:29:07;11.60;;;3.90;;
38479;SDS011;62333;51.980;5.934;2024-02-21T08:31:33;11.75;;;4.50;;
38479;SDS011;62333;51.980;5.934;2024-02-21T08:33:59;10.40;;;5.00;;
38479;SDS011;62333;51.980;5.934;2024-02-21T08:36:29;9.05;;;4.47;;
38479;SDS011;62333;51.980;5.934;2024-02-21T08:38:59;13.88;;;5.13;;
38479;SDS011;62333;51.980;5.934;2024-02-21T08:41:25;9.88;;;3.88;;
38479;SDS011;62333;51.980;5.934;2024-02-21T08:43:52;8.57;;;3.00;;
38479;SDS011;62333;51.980;5.934;2024-02-21T08:46:19;7.30;;;3.42;;
38479;SDS011;62333;51.980;5.934;2024-02-21T08:48:45;9.95;;;4.80;;
38479;SDS011;62333;51.980;5.934;2024-02-21T08:51:12;10.95;;;4.88;;
38479;SDS011;62333;51.980;5.934;2024-02-21T08:53:38;7.43;;;3.42;;
38479;SDS011;62333;51.980;5.934;2024-02-21T08:56:04;11.80;;;4.80;;
38479;SDS011;62333;51.980;5.934;2024-02-21T08:58:30;11.32;;;5.07;;
38479;SDS011;62333;51.980;5.934;2024-02-21T09:00:56;12.93;;;5.55;;
38479;SDS011;62333;51.980;5.934;2024-02-21T09:03:22;9.40;;;4.20;;
38479;SDS011;62333;51.980;5.934;2024-02-21T09:05:48;11.18;;;3.72;;
38479;SDS011;62333;51.980;5.934;2024-02-21T09:08:13;8.32;;;3.70;;
38479;SDS011;62333;51.980;5.934;2024-02-21T09:10:39;12.40;;;5.22;;
38479;SDS011;62333;51.980;5.934;2024-02-21T09:13:05;8.70;;;4.80;;
38479;SDS011;62333;51.980;5.934;2024-02-21T09:15:32;12.48;;;5.05;;
38479;SDS011;62333;51.980;5.934;2024-02-21T09:17:58;6.90;;;4.28;;
38479;SDS011;62333;51.980;5.934;2024-02-21T09:20:24;6.72;;;3.65;;
38479;SDS011;62333;51.980;5.934;2024-02-21T09:22:50;12.20;;;5.13;;
38479;SDS011;62333;51.980;5.934;2024-02-21T09:25:15;7.53;;;3.92;;
38479;SDS011;62333;51.980;5.934;2024-02-21T09:27:43;8.45;;;4.22;;
38479;SDS011;62333;51.980;5.934;2024-02-21T09:30:10;8.57;;;3.55;;
38479;SDS011;62333;51.980;5.934;2024-02-21T09:32:35;5.78;;;2.92;;
38479;SDS011;62333;51.980;5.934;2024-02-21T09:35:02;8.70;;;3.17;;
38479;SDS011;62333;51.980;5.934;2024-02-21T09:37:28;6.65;;;2.78;;
38479;SDS011;62333;51.980;5.934;2024-02-21T09:39:54;13.45;;;4.63;;
38479;SDS011;62333;51.980;5.934;2024-02-21T09:42:22;8.20;;;4.25;;
38479;SDS011;62333;51.980;5.934;2024-02-21T09:45:01;6.35;;;2.50;;
38479;SDS011;62333;51.980;5.934;2024-02-21T09:48:15;8.40;;;2.70;;
38479;SDS011;62333;51.980;5.934;2024-02-21T09:50:29;6.45;;;3.10;;
38479;SDS011;62333;51.980;5.934;2024-02-21T09:52:57;8.43;;;3.03;;
38479;SDS011;62333;51.980;5.934;2024-02-21T09:55:26;12.75;;;3.05;;
38479;SDS011;62333;51.980;5.934;2024-02-21T09:57:54;4.78;;;2.78;;
38479;SDS011;62333;51.980;5.934;2024-02-21T10:00:21;5.72;;;3.25;;
38479;SDS011;62333;51.980;5.934;2024-02-21T10:02:47;6.82;;;3.38;;
38479;SDS011;62333;51.980;5.934;2024-02-21T10:05:14;7.72;;;3.63;;
38479;SDS011;62333;51.980;5.934;2024-02-21T10:07:40;5.10;;;2.50;;
38479;SDS011;62333;51.980;5.934;2024-02-21T10:10:06;7.18;;;4.00;;
38479;SDS011;62333;51.980;5.934;2024-02-21T10:12:33;6.85;;;2.97;;
38479;SDS011;62333;51.980;5.934;2024-02-21T10:17:27;5.40;;;2.80;;
38479;SDS011;62333;51.980;5.934;2024-02-21T10:19:52;8.27;;;3.10;;
38479;SDS011;62333;51.980;5.934;2024-02-21T10:22:18;7.35;;;3.35;;
38479;SDS011;62333;51.980;5.934;2024-02-21T10:24:45;8.82;;;4.05;;
38479;SDS011;62333;51.980;5.934;2024-02-21T10:27:11;6.43;;;3.05;;
38479;SDS011;62333;51.980;5.934;2024-02-21T10:29:37;6.93;;;3.78;;
38479;SDS011;62333;51.980;5.934;2024-02-21T10:32:04;5.40;;;2.85;;
38479;SDS011;62333;51.980;5.934;2024-02-21T10:34:34;7.03;;;3.00;;
38479;SDS011;62333;51.980;5.934;2024-02-21T10:37:01;6.15;;;2.47;;
38479;SDS011;62333;51.980;5.934;2024-02-21T10:39:35;6.10;;;2.50;;
38479;SDS011;62333;51.980;5.934;2024-02-21T10:44:29;6.32;;;3.22;;
38479;SDS011;62333;51.980;5.934;2024-02-21T10:46:59;5.40;;;2.80;;
38479;SDS011;62333;51.980;5.934;2024-02-21T10:49:27;4.93;;;1.67;;
38479;SDS011;62333;51.980;5.934;2024-02-21T10:51:59;5.05;;;1.75;;
38479;SDS011;62333;51.980;5.934;2024-02-21T10:57:21;4.45;;;2.58;;
38479;SDS011;62333;51.980;5.934;2024-02-21T10:59:48;3.53;;;1.77;;
38479;SDS011;62333;51.980;5.934;2024-02-21T11:02:15;4.55;;;2.55;;
38479;SDS011;62333;51.980;5.934;2024-02-21T11:04:41;4.78;;;2.42;;
38479;SDS011;62333;51.980;5.934;2024-02-21T11:07:07;4.00;;;1.73;;
38479;SDS011;62333;51.980;5.934;2024-02-21T11:09:34;4.90;;;1.88;;
38479;SDS011;62333;51.980;5.934;2024-02-21T11:12:03;5.40;;;2.28;;
38479;SDS011;62333;51.980;5.934;2024-02-21T11:14:30;6.50;;;2.80;;
38479;SDS011;62333;51.980;5.934;2024-02-21T11:17:13;11.13;;;4.22;;
38479;SDS011;62333;51.980;5.934;2024-02-21T11:19:43;6.13;;;2.53;;
38479;SDS011;62333;51.980;5.934;2024-02-21T11:22:17;7.55;;;2.88;;
38479;SDS011;62333;51.980;5.934;2024-02-21T11:24:45;6.00;;;2.42;;
38479;SDS011;62333;51.980;5.934;2024-02-21T11:27:12;5.68;;;3.15;;
38479;SDS011;62333;51.980;5.934;2024-02-21T11:29:44;7.97;;;3.67;;
38479;SDS011;62333;51.980;5.934;2024-02-21T11:32:16;7.40;;;2.40;;
38479;SDS011;62333;51.980;5.934;2024-02-21T11:34:57;11.25;;;3.63;;
38479;SDS011;62333;51.980;5.934;2024-02-21T11:37:28;6.68;;;2.17;;
38479;SDS011;62333;51.980;5.934;2024-02-21T11:39:55;9.15;;;3.17;;
38479;SDS011;62333;51.980;5.934;2024-02-21T11:42:21;7.38;;;3.70;;
38479;SDS011;62333;51.980;5.934;2024-02-21T11:44:47;6.07;;;1.92;;
38479;SDS011;62333;51.980;5.934;2024-02-21T11:47:14;11.07;;;2.72;;
38479;SDS011;62333;51.980;5.934;2024-02-21T11:49:46;8.85;;;2.85;;
38479;SDS011;62333;51.980;5.934;2024-02-21T11:52:15;6.50;;;2.50;;
38479;SDS011;62333;51.980;5.934;2024-02-21T11:54:41;9.82;;;3.60;;
38479;SDS011;62333;51.980;5.934;2024-02-21T11:57:07;5.82;;;2.25;;
38479;SDS011;62333;51.980;5.934;2024-02-21T11:59:34;5.32;;;2.30;;
38479;SDS011;62333;51.980;5.934;2024-02-21T12:02:00;6.20;;;2.20;;
38479;SDS011;62333;51.980;5.934;2024-02-21T12:04:26;7.60;;;2.35;;
38479;SDS011;62333;51.980;5.934;2024-02-21T12:06:55;7.43;;;1.95;;
38479;SDS011;62333;51.980;5.934;2024-02-21T12:09:22;6.55;;;3.13;;
38479;SDS011;62333;51.980;5.934;2024-02-21T12:11:56;6.82;;;3.17;;
38479;SDS011;62333;51.980;5.934;2024-02-21T12:14:27;13.02;;;3.17;;
38479;SDS011;62333;51.980;5.934;2024-02-21T12:16:53;7.90;;;3.10;;
38479;SDS011;62333;51.980;5.934;2024-02-21T12:19:19;5.10;;;2.60;;
38479;SDS011;62333;51.980;5.934;2024-02-21T12:21:45;5.88;;;3.35;;
38479;SDS011;62333;51.980;5.934;2024-02-21T12:24:15;5.82;;;2.72;;
38479;SDS011;62333;51.980;5.934;2024-02-21T12:26:48;7.38;;;2.45;;
38479;SDS011;62333;51.980;5.934;2024-02-21T12:29:20;5.32;;;2.03;;
38479;SDS011;62333;51.980;5.934;2024-02-21T12:31:46;8.82;;;2.25;;
38479;SDS011;62333;51.980;5.934;2024-02-21T12:34:12;6.78;;;2.67;;
38479;SDS011;62333;51.980;5.934;2024-02-21T12:36:42;5.22;;;1.92;;
38479;SDS011;62333;51.980;5.934;2024-02-21T12:39:09;8.95;;;2.67;;
38479;SDS011;62333;51.980;5.934;2024-02-21T12:41:35;5.38;;;1.83;;
38479;SDS011;62333;51.980;5.934;2024-02-21T12:44:04;5.15;;;1.40;;
38479;SDS011;62333;51.980;5.934;2024-02-21T12:46:32;4.10;;;1.60;;
38479;SDS011;62333;51.980;5.934;2024-02-21T12:48:58;5.97;;;1.60;;
38479;SDS011;62333;51.980;5.934;2024-02-21T12:51:24;5.15;;;1.60;;
38479;SDS011;62333;51.980;5.934;2024-02-21T12:53:49;5.78;;;1.77;;
38479;SDS011;62333;51.980;5.934;2024-02-21T12:56:15;7.97;;;3.75;;
38479;SDS011;62333;51.980;5.934;2024-02-21T12:58:41;6.90;;;1.90;;
38479;SDS011;62333;51.980;5.934;2024-02-21T13:01:07;4.18;;;1.58;;
38479;SDS011;62333;51.980;5.934;2024-02-21T13:03:33;5.47;;;1.90;;
38479;SDS011;62333;51.980;5.934;2024-02-21T13:05:58;5.63;;;1.60;;
38479;SDS011;62333;51.980;5.934;2024-02-21T13:08:24;5.15;;;1.92;;
38479;SDS011;62333;51.980;5.934;2024-02-21T13:10:50;8.00;;;2.33;;
38479;SDS011;62333;51.980;5.934;2024-02-21T13:13:16;9.82;;;3.58;;
38479;SDS011;62333;51.980;5.934;2024-02-21T13:15:42;4.75;;;2.05;;
38479;SDS011;62333;51.980;5.934;2024-02-21T13:18:08;6.47;;;2.53;;
38479;SDS011;62333;51.980;5.934;2024-02-21T13:20:34;4.63;;;0.90;;
38479;SDS011;62333;51.980;5.934;2024-02-21T13:23:00;6.97;;;1.67;;
38479;SDS011;62333;51.980;5.934;2024-02-21T13:25:26;7.05;;;2.40;;
38479;SDS011;62333;51.980;5.934;2024-02-21T13:27:51;6.65;;;2.15;;
38479;SDS011;62333;51.980;5.934;2024-02-21T13:30:17;8.02;;;2.30;;
38479;SDS011;62333;51.980;5.934;2024-02-21T13:32:43;10.70;;;2.80;;
38479;SDS011;62333;51.980;5.934;2024-02-21T13:35:11;7.03;;;1.38;;
38479;SDS011;62333;51.980;5.934;2024-02-21T13:37:37;8.30;;;1.90;;
38479;SDS011;62333;51.980;5.934;2024-02-21T13:40:04;8.32;;;2.40;;
38479;SDS011;62333;51.980;5.934;2024-02-21T13:42:30;7.07;;;2.45;;
38479;SDS011;62333;51.980;5.934;2024-02-21T13:44:56;3.65;;;1.55;;
38479;SDS011;62333;51.980;5.934;2024-02-21T13:47:22;8.13;;;2.45;;
38479;SDS011;62333;51.980;5.934;2024-02-21T13:49:47;5.30;;;1.70;;
38479;SDS011;62333;51.980;5.934;2024-02-21T13:52:13;6.20;;;1.48;;
38479;SDS011;62333;51.980;5.934;2024-02-21T13:54:39;9.95;;;3.08;;
38479;SDS011;62333;51.980;5.934;2024-02-21T13:57:05;9.00;;;2.03;;
38479;SDS011;62333;51.980;5.934;2024-02-21T13:59:31;5.43;;;1.13;;
38479;SDS011;62333;51.980;5.934;2024-02-21T14:01:58;8.38;;;2.00;;
38479;SDS011;62333;51.980;5.934;2024-02-21T14:04:24;4.80;;;1.67;;
38479;SDS011;62333;51.980;5.934;2024-02-21T14:06:50;5.00;;;1.65;;
38479;SDS011;62333;51.980;5.934;2024-02-21T14:09:16;9.70;;;2.08;;
38479;SDS011;62333;51.980;5.934;2024-02-21T14:11:41;7.20;;;2.20;;
38479;SDS011;62333;51.980;5.934;2024-02-21T14:14:07;11.02;;;1.85;;
38479;SDS011;62333;51.980;5.934;2024-02-21T14:16:33;5.68;;;1.25;;
38479;SDS011;62333;51.980;5.934;2024-02-21T14:18:59;4.30;;;1.25;;
38479;SDS011;62333;51.980;5.934;2024-02-21T14:21:25;6.85;;;2.20;;
38479;SDS011;62333;51.980;5.934;2024-02-21T14:23:50;4.93;;;1.20;;
38479;SDS011;62333;51.980;5.934;2024-02-21T14:26:17;4.90;;;1.30;;
38479;SDS011;62333;51.980;5.934;2024-02-21T14:28:43;4.65;;;1.60;;
38479;SDS011;62333;51.980;5.934;2024-02-21T14:31:10;5.85;;;1.30;;
38479;SDS011;62333;51.980;5.934;2024-02-21T14:33:36;4.93;;;1.23;;
38479;SDS011;62333;51.980;5.934;2024-02-21T14:36:02;6.32;;;1.10;;
38479;SDS011;62333;51.980;5.934;2024-02-21T14:38:28;7.65;;;1.40;;
38479;SDS011;62333;51.980;5.934;2024-02-21T14:40:54;23.13;;;1.50;;
38479;SDS011;62333;51.980;5.934;2024-02-21T14:43:20;4.82;;;1.25;;
38479;SDS011;62333;51.980;5.934;2024-02-21T14:45:46;3.10;;;0.93;;
38479;SDS011;62333;51.980;5.934;2024-02-21T14:48:13;9.18;;;1.40;;